This is the latest recevied weather packets stored in our database for station/object SV6LWW-11. If no packets are shown the sender has not sent any weather packets the latest 1 day(s).
| Time | Temp. | Humidity | Pressure | Rain* | Wind** | Luminosity | Snow |
|---|---|---|---|---|---|---|---|
| 1778096259 | 20.56° C | 51% | 1025.6 hPa | - | - | - | - |
| 1778095359 | 20° C | 50% | 1025.5 hPa | - | - | - | - |
| 1778089958 | 20.56° C | 47% | 1024.2 hPa | - | - | - | - |
| 1778089058 | 20.56° C | 48% | 1024.1 hPa | - | - | - | - |
| 1778088158 | 20.56° C | 48% | 1024.2 hPa | - | - | - | - |
| 1778087258 | 20.56° C | 48% | 1024.3 hPa | - | - | - | - |
| 1778087237 | 20.56° C | 48% | 1024.2 hPa | - | - | - | - |
| 1778084491 | 21.11° C | 41% | 1023.7 hPa | - | - | - | - |
| 1778083591 | 21.67° C | 40% | 1023.7 hPa | - | - | - | - |
| 1778082747 | 22.78° C | 39% | 1023.7 hPa | - | - | - | - |
| 1778080046 | 23.33° C | 36% | 1023.9 hPa | - | - | - | - |
| 1778079146 | 23.89° C | 35% | 1023.9 hPa | - | - | - | - |
| 1778073745 | 26.67° C | 21% | 1024.4 hPa | - | - | - | - |
| 1778072845 | 26.67° C | 21% | 1024.7 hPa | - | - | - | - |
| 1778069244 | 26.11° C | 23% | 1025.2 hPa | - | - | - | - |
| 1778068344 | 25.56° C | 28% | 1025.2 hPa | - | - | - | - |
| 1778066758 | 26.11° C | 24% | 1025.1 hPa | - | - | - | - |
| 1778065858 | 26.67° C | 20% | 1025.2 hPa | - | - | - | - |
| 1778062891 | 31.11° C | 21% | 1025.3 hPa | - | - | - | - |
| 1778061990 | 23.89° C | 36% | 1025.5 hPa | - | - | - | - |
| 1778061582 | 20.56° C | 62% | 1025.5 hPa | - | - | - | - |
| 1778060682 | 20.56° C | 63% | 1025.5 hPa | - | - | - | - |
| 1778057081 | 20.56° C | 58% | 1025.6 hPa | - | - | - | - |
| 1778056181 | 20.56° C | 58% | 1025.5 hPa | - | - | - | - |
| 1778055281 | 20.56° C | 57% | 1025.5 hPa | - | - | - | - |
* Rain since midnight (hover to see other rain measurements)
** Current wind speed in m/s (hover to see current wind gust speed)